Nakkehoved, Denmark

8:23 PM CEST on July 28, 2016 (GMT +0200)
IHOVEDST4 | | Change Station

Elev 20 ft 56.12 °N, 12.31 °E | Updated 12 minutes ago

Clear
Clear
65.4 °F
Feels Like 65.4 °F
N
4.0
Wind Variable Wind from WNW
Gusts 6.0 mph

Today
High -- | Low -- °F
--% Chance of Precip.
Yesterday
High -- | Low -- °F
Precip. -- in
Pressure 29.92 in
Visibility -9999.0 miles
Clouds
Dew Point 55 °F
Humidity 70%
Rainfall 0.00 in
Snow Depth Not available.
5:07 AM 9:25 PM
Waning Crescent, 30% visible
METAR ESTA 281750Z 27006KT CAVOK 18/12 Q1013
Pressure 29.92 in
Visibility -9999.0 miles
Clouds
Dew Point 55 °F
Humidity 70%
Rainfall 0.00 in
Snow Depth Not available.
5:07 AM 9:25 PM
Waning Crescent, 30% visible
METAR ESTA 281750Z 27006KT CAVOK 18/12 Q1013

10-Day Weather Forecast

×

Almanac

Astronomy

Jul. 28, 2016 Rise Set
Actual Time
Civil Twilight
Nautical Twilight
Astronomical Twilight
Moon
Length of Visible Light
Length of Day
Tomorrow will be .
, % of the Moon is Illuminated

Today's Extremes

Country Highs Country Lows

Community

WunderPhotos

Upload Photos

1,928,174 photos uploaded!

WunderBlog® & News

Nearby

Air Quality

  Air Quality AQ Index Pollutant
Not available.

Snow Depth

Station Depth Elevation

Earthquake Activity

City Distance Mag. Time & Date
Minimum magnitude displayed is 2.5.

Coastal Water Temperatures

Place Temperature

Stations

Nearby Weather Stations

Station Location Temp. Windchill Dew Point Humidity Wind Precip. Elev Updated Type